Terminal Aerodrome Forecast
Issued by NWS Cleveland, OH

Home | Current Version | Previous Version | Text Only | Print | Product List | Glossary Off
Versions: 1 2 3 4 5 6 7 8 9 10 11 12 13 14 15 16 17 18 19

000
FTUS41 KCLE 241124
TAFTOL
TAF
KTOL 241124Z 2412/2512 12007KT 1SM BR VCSH BKN002 OVC050
      TEMPO 2413/2415 5SM HZ SCT005 BKN050
     FM241500 17014G23KT P6SM BKN045
     FM250300 24014KT P6SM -SHRA SCT020 OVC060
      TEMPO 2503/2505 26025G45KT 2SM TSRA BKN015CB=

USA.gov is the U.S. government's official web portal to all federal, state and local government web resources and services.